sensor_id;sensor_type;location;lat;lon;timestamp;P1;durP1;ratioP1;P2;durP2;ratioP2
12650;SDS011;6390;49.400;8.670;2023-04-03T03:32:25;1.70;;;1.60;;
12650;SDS011;6390;49.400;8.670;2023-04-03T03:34:51;1.92;;;1.75;;
12650;SDS011;6390;49.400;8.670;2023-04-03T03:37:17;2.10;;;1.90;;
12650;SDS011;6390;49.400;8.670;2023-04-03T03:39:43;1.70;;;1.60;;
12650;SDS011;6390;49.400;8.670;2023-04-03T03:42:09;1.83;;;1.65;;
12650;SDS011;6390;49.400;8.670;2023-04-03T03:44:36;2.00;;;1.80;;
12650;SDS011;6390;49.400;8.670;2023-04-03T03:47:02;1.80;;;1.70;;
12650;SDS011;6390;49.400;8.670;2023-04-03T03:49:28;1.88;;;1.67;;
12650;SDS011;6390;49.400;8.670;2023-04-03T03:51:54;2.28;;;2.00;;
12650;SDS011;6390;49.400;8.670;2023-04-03T03:54:21;1.77;;;1.58;;
12650;SDS011;6390;49.400;8.670;2023-04-03T03:56:47;2.13;;;1.92;;
12650;SDS011;6390;49.400;8.670;2023-04-03T03:59:13;1.98;;;1.88;;
12650;SDS011;6390;49.400;8.670;2023-04-03T04:01:39;2.13;;;1.77;;
12650;SDS011;6390;49.400;8.670;2023-04-03T04:04:05;2.42;;;2.08;;
12650;SDS011;6390;49.400;8.670;2023-04-03T04:06:31;3.65;;;3.03;;
12650;SDS011;6390;49.400;8.670;2023-04-03T04:08:57;2.42;;;2.10;;
12650;SDS011;6390;49.400;8.670;2023-04-03T04:11:23;2.33;;;2.13;;
12650;SDS011;6390;49.400;8.670;2023-04-03T04:13:49;1.98;;;1.80;;
12650;SDS011;6390;49.400;8.670;2023-04-03T04:16:15;1.90;;;1.80;;
12650;SDS011;6390;49.400;8.670;2023-04-03T04:18:42;2.15;;;1.98;;
12650;SDS011;6390;49.400;8.670;2023-04-03T04:21:08;1.92;;;1.83;;
12650;SDS011;6390;49.400;8.670;2023-04-03T04:23:34;2.10;;;1.95;;
12650;SDS011;6390;49.400;8.670;2023-04-03T04:26:00;2.05;;;1.85;;
12650;SDS011;6390;49.400;8.670;2023-04-03T04:28:26;1.70;;;1.60;;
12650;SDS011;6390;49.400;8.670;2023-04-03T04:30:52;2.00;;;1.80;;
12650;SDS011;6390;49.400;8.670;2023-04-03T04:33:18;2.13;;;1.75;;
12650;SDS011;6390;49.400;8.670;2023-04-03T04:35:46;2.10;;;1.83;;
12650;SDS011;6390;49.400;8.670;2023-04-03T04:38:13;2.08;;;1.88;;
12650;SDS011;6390;49.400;8.670;2023-04-03T04:40:39;1.80;;;1.70;;
12650;SDS011;6390;49.400;8.670;2023-04-03T04:43:06;1.88;;;1.58;;
12650;SDS011;6390;49.400;8.670;2023-04-03T04:45:32;2.40;;;1.75;;
12650;SDS011;6390;49.400;8.670;2023-04-03T04:47:58;2.08;;;1.85;;
12650;SDS011;6390;49.400;8.670;2023-04-03T04:50:24;1.70;;;1.60;;
12650;SDS011;6390;49.400;8.670;2023-04-03T04:52:50;1.85;;;1.73;;
12650;SDS011;6390;49.400;8.670;2023-04-03T04:55:17;2.00;;;1.73;;
12650;SDS011;6390;49.400;8.670;2023-04-03T04:57:43;1.98;;;1.77;;
12650;SDS011;6390;49.400;8.670;2023-04-03T05:00:09;2.25;;;1.90;;
12650;SDS011;6390;49.400;8.670;2023-04-03T05:02:36;2.45;;;1.80;;
12650;SDS011;6390;49.400;8.670;2023-04-03T05:05:02;1.63;;;1.52;;
12650;SDS011;6390;49.400;8.670;2023-04-03T05:07:29;1.88;;;1.70;;
12650;SDS011;6390;49.400;8.670;2023-04-03T05:09:55;2.72;;;1.65;;
12650;SDS011;6390;49.400;8.670;2023-04-03T05:12:21;2.08;;;1.98;;
12650;SDS011;6390;49.400;8.670;2023-04-03T05:14:47;2.00;;;1.90;;
12650;SDS011;6390;49.400;8.670;2023-04-03T05:17:13;1.80;;;1.70;;
12650;SDS011;6390;49.400;8.670;2023-04-03T05:19:39;1.90;;;1.80;;
12650;SDS011;6390;49.400;8.670;2023-04-03T05:22:05;1.67;;;1.58;;
12650;SDS011;6390;49.400;8.670;2023-04-03T05:24:31;1.88;;;1.77;;
12650;SDS011;6390;49.400;8.670;2023-04-03T05:26:57;2.05;;;1.95;;
12650;SDS011;6390;49.400;8.670;2023-04-03T05:29:24;2.45;;;1.92;;
12650;SDS011;6390;49.400;8.670;2023-04-03T05:31:50;2.10;;;1.90;;
12650;SDS011;6390;49.400;8.670;2023-04-03T05:34:16;1.80;;;1.70;;
12650;SDS011;6390;49.400;8.670;2023-04-03T05:36:42;2.20;;;2.00;;
12650;SDS011;6390;49.400;8.670;2023-04-03T05:39:08;2.30;;;2.10;;
12650;SDS011;6390;49.400;8.670;2023-04-03T05:41:38;2.10;;;1.90;;
12650;SDS011;6390;49.400;8.670;2023-04-03T05:44:04;2.35;;;2.15;;
12650;SDS011;6390;49.400;8.670;2023-04-03T05:46:30;1.70;;;1.60;;
12650;SDS011;6390;49.400;8.670;2023-04-03T05:48:56;2.28;;;1.85;;
12650;SDS011;6390;49.400;8.670;2023-04-03T05:51:28;2.30;;;2.10;;
12650;SDS011;6390;49.400;8.670;2023-04-03T05:54:16;2.30;;;2.10;;
12650;SDS011;6390;49.400;8.670;2023-04-03T05:56:53;3.22;;;1.83;;
12650;SDS011;6390;49.400;8.670;2023-04-03T05:59:19;2.40;;;2.20;;
12650;SDS011;6390;49.400;8.670;2023-04-03T06:01:46;2.03;;;1.90;;
12650;SDS011;6390;49.400;8.670;2023-04-03T06:04:13;2.20;;;2.00;;
12650;SDS011;6390;49.400;8.670;2023-04-03T06:06:50;2.00;;;1.90;;
12650;SDS011;6390;49.400;8.670;2023-04-03T06:09:21;2.15;;;1.92;;
12650;SDS011;6390;49.400;8.670;2023-04-03T06:11:51;2.35;;;2.15;;
12650;SDS011;6390;49.400;8.670;2023-04-03T06:14:18;2.30;;;2.10;;
12650;SDS011;6390;49.400;8.670;2023-04-03T06:16:44;1.98;;;1.88;;
12650;SDS011;6390;49.400;8.670;2023-04-03T06:19:11;2.53;;;2.30;;
12650;SDS011;6390;49.400;8.670;2023-04-03T06:21:37;2.30;;;2.10;;
12650;SDS011;6390;49.400;8.670;2023-04-03T06:24:04;3.20;;;2.20;;
12650;SDS011;6390;49.400;8.670;2023-04-03T06:26:31;2.33;;;1.92;;
12650;SDS011;6390;49.400;8.670;2023-04-03T06:28:58;2.38;;;2.17;;
12650;SDS011;6390;49.400;8.670;2023-04-03T06:31:25;3.08;;;2.22;;
12650;SDS011;6390;49.400;8.670;2023-04-03T06:33:51;2.30;;;2.10;;
12650;SDS011;6390;49.400;8.670;2023-04-03T06:36:18;2.78;;;2.08;;
12650;SDS011;6390;49.400;8.670;2023-04-03T06:38:46;3.50;;;2.40;;
12650;SDS011;6390;49.400;8.670;2023-04-03T06:41:13;2.45;;;2.05;;
12650;SDS011;6390;49.400;8.670;2023-04-03T06:43:39;2.72;;;2.00;;
12650;SDS011;6390;49.400;8.670;2023-04-03T06:46:06;2.28;;;1.95;;
12650;SDS011;6390;49.400;8.670;2023-04-03T06:48:34;2.10;;;1.70;;
12650;SDS011;6390;49.400;8.670;2023-04-03T06:51:01;2.15;;;1.95;;
12650;SDS011;6390;49.400;8.670;2023-04-03T06:53:27;3.45;;;2.10;;
12650;SDS011;6390;49.400;8.670;2023-04-03T06:55:53;2.22;;;2.03;;
12650;SDS011;6390;49.400;8.670;2023-04-03T06:58:19;2.20;;;1.90;;
12650;SDS011;6390;49.400;8.670;2023-04-03T07:00:45;2.55;;;1.90;;
12650;SDS011;6390;49.400;8.670;2023-04-03T07:03:12;2.50;;;1.92;;
12650;SDS011;6390;49.400;8.670;2023-04-03T07:05:38;1.98;;;1.80;;
12650;SDS011;6390;49.400;8.670;2023-04-03T07:08:04;2.08;;;1.88;;
12650;SDS011;6390;49.400;8.670;2023-04-03T07:10:31;3.17;;;1.80;;
12650;SDS011;6390;49.400;8.670;2023-04-03T07:12:57;2.92;;;1.85;;
12650;SDS011;6390;49.400;8.670;2023-04-03T07:15:23;2.10;;;1.95;;
12650;SDS011;6390;49.400;8.670;2023-04-03T07:17:49;2.08;;;1.65;;
12650;SDS011;6390;49.400;8.670;2023-04-03T07:20:15;1.95;;;1.80;;
12650;SDS011;6390;49.400;8.670;2023-04-03T07:22:42;2.20;;;1.80;;
12650;SDS011;6390;49.400;8.670;2023-04-03T07:25:08;2.85;;;1.60;;
12650;SDS011;6390;49.400;8.670;2023-04-03T07:27:35;2.20;;;1.80;;
12650;SDS011;6390;49.400;8.670;2023-04-03T07:30:01;2.65;;;1.63;;
12650;SDS011;6390;49.400;8.670;2023-04-03T07:32:28;1.98;;;1.67;;
12650;SDS011;6390;49.400;8.670;2023-04-03T07:34:54;2.70;;;1.80;;
12650;SDS011;6390;49.400;8.670;2023-04-03T07:37:20;2.28;;;1.70;;
12650;SDS011;6390;49.400;8.670;2023-04-03T07:39:47;2.53;;;1.33;;
12650;SDS011;6390;49.400;8.670;2023-04-03T07:42:13;2.33;;;1.48;;
12650;SDS011;6390;49.400;8.670;2023-04-03T07:44:39;2.50;;;1.42;;
12650;SDS011;6390;49.400;8.670;2023-04-03T07:47:06;1.70;;;1.60;;
12650;SDS011;6390;49.400;8.670;2023-04-03T07:49:32;2.22;;;1.50;;
12650;SDS011;6390;49.400;8.670;2023-04-03T07:51:59;2.80;;;1.70;;
12650;SDS011;6390;49.400;8.670;2023-04-03T07:54:25;2.25;;;1.73;;
12650;SDS011;6390;49.400;8.670;2023-04-03T07:56:52;2.42;;;1.65;;
12650;SDS011;6390;49.400;8.670;2023-04-03T07:59:18;2.45;;;1.40;;
12650;SDS011;6390;49.400;8.670;2023-04-03T08:01:44;1.98;;;1.27;;
12650;SDS011;6390;49.400;8.670;2023-04-03T08:04:10;1.67;;;1.40;;
12650;SDS011;6390;49.400;8.670;2023-04-03T08:06:36;2.78;;;1.50;;
12650;SDS011;6390;49.400;8.670;2023-04-03T08:09:03;1.30;;;1.13;;
12650;SDS011;6390;49.400;8.670;2023-04-03T08:11:29;2.28;;;1.13;;
12650;SDS011;6390;49.400;8.670;2023-04-03T08:13:56;2.60;;;1.17;;
12650;SDS011;6390;49.400;8.670;2023-04-03T08:16:22;1.77;;;1.25;;
12650;SDS011;6390;49.400;8.670;2023-04-03T08:18:51;1.65;;;1.30;;
12650;SDS011;6390;49.400;8.670;2023-04-03T08:21:18;1.83;;;1.20;;
12650;SDS011;6390;49.400;8.670;2023-04-03T08:23:47;1.40;;;1.10;;
12650;SDS011;6390;49.400;8.670;2023-04-03T08:26:16;1.10;;;1.00;;
12650;SDS011;6390;49.400;8.670;2023-04-03T08:28:45;1.08;;;0.98;;
12650;SDS011;6390;49.400;8.670;2023-04-03T08:31:14;1.33;;;1.23;;
12650;SDS011;6390;49.400;8.670;2023-04-03T08:33:43;1.25;;;1.00;;
12650;SDS011;6390;49.400;8.670;2023-04-03T08:36:20;1.10;;;1.00;;
12650;SDS011;6390;49.400;8.670;2023-04-03T08:38:51;1.52;;;1.00;;
12650;SDS011;6390;49.400;8.670;2023-04-03T08:49:43;1.30;;;0.93;;
12650;SDS011;6390;49.400;8.670;2023-04-03T08:52:20;1.73;;;1.10;;
12650;SDS011;6390;49.400;8.670;2023-04-03T08:54:55;0.75;;;0.75;;
12650;SDS011;6390;49.400;8.670;2023-04-03T08:57:28;1.65;;;0.90;;
12650;SDS011;6390;49.400;8.670;2023-04-03T09:00:14;1.17;;;1.05;;
12650;SDS011;6390;49.400;8.670;2023-04-03T09:02:49;1.00;;;0.88;;
12650;SDS011;6390;49.400;8.670;2023-04-03T09:05:20;1.13;;;0.90;;
12650;SDS011;6390;49.400;8.670;2023-04-03T09:10:49;1.70;;;0.98;;
12650;SDS011;6390;49.400;8.670;2023-04-03T09:13:29;1.60;;;0.80;;
12650;SDS011;6390;49.400;8.670;2023-04-03T09:16:02;1.10;;;0.80;;
12650;SDS011;6390;49.400;8.670;2023-04-03T09:18:45;1.35;;;0.80;;
12650;SDS011;6390;49.400;8.670;2023-04-03T09:21:20;1.20;;;0.90;;
12650;SDS011;6390;49.400;8.670;2023-04-03T09:24:02;1.92;;;1.10;;
12650;SDS011;6390;49.400;8.670;2023-04-03T09:26:36;0.88;;;0.70;;
12650;SDS011;6390;49.400;8.670;2023-04-03T09:29:10;1.60;;;1.00;;
12650;SDS011;6390;49.400;8.670;2023-04-03T09:31:44;1.00;;;0.90;;
12650;SDS011;6390;49.400;8.670;2023-04-03T09:34:18;1.38;;;0.90;;
12650;SDS011;6390;49.400;8.670;2023-04-03T09:36:56;1.13;;;0.93;;
12650;SDS011;6390;49.400;8.670;2023-04-03T09:39:30;2.00;;;1.00;;
12650;SDS011;6390;49.400;8.670;2023-04-03T09:44:37;0.82;;;0.82;;
12650;SDS011;6390;49.400;8.670;2023-04-03T09:47:17;1.63;;;0.93;;
12650;SDS011;6390;49.400;8.670;2023-04-03T09:49:50;0.90;;;0.80;;
12650;SDS011;6390;49.400;8.670;2023-04-03T09:52:35;1.10;;;0.98;;
12650;SDS011;6390;49.400;8.670;2023-04-03T09:55:10;0.85;;;0.70;;
12650;SDS011;6390;49.400;8.670;2023-04-03T09:57:41;1.10;;;0.82;;
12650;SDS011;6390;49.400;8.670;2023-04-03T10:00:27;1.77;;;0.90;;
12650;SDS011;6390;49.400;8.670;2023-04-03T10:03:00;1.20;;;0.82;;
12650;SDS011;6390;49.400;8.670;2023-04-03T10:08:08;1.92;;;0.85;;
12650;SDS011;6390;49.400;8.670;2023-04-03T10:10:43;1.02;;;1.00;;
12650;SDS011;6390;49.400;8.670;2023-04-03T10:13:14;1.10;;;0.80;;
12650;SDS011;6390;49.400;8.670;2023-04-03T10:18:37;1.10;;;0.88;;
12650;SDS011;6390;49.400;8.670;2023-04-03T10:21:33;0.90;;;0.82;;
12650;SDS011;6390;49.400;8.670;2023-04-03T10:27:38;0.75;;;0.70;;
12650;SDS011;6390;49.400;8.670;2023-04-03T10:36:34;1.02;;;0.80;;
12650;SDS011;6390;49.400;8.670;2023-04-03T10:45:31;0.80;;;0.60;;
12650;SDS011;6390;49.400;8.670;2023-04-03T10:54:17;0.90;;;0.80;;
12650;SDS011;6390;49.400;8.670;2023-04-03T10:56:52;1.02;;;0.90;;
12650;SDS011;6390;49.400;8.670;2023-04-03T10:59:26;1.13;;;1.00;;
12650;SDS011;6390;49.400;8.670;2023-04-03T11:02:06;1.40;;;0.90;;
12650;SDS011;6390;49.400;8.670;2023-04-03T11:04:40;0.80;;;0.80;;
12650;SDS011;6390;49.400;8.670;2023-04-03T11:09:52;0.80;;;0.80;;
12650;SDS011;6390;49.400;8.670;2023-04-03T11:12:26;1.00;;;0.90;;
12650;SDS011;6390;49.400;8.670;2023-04-03T11:15:06;1.52;;;0.90;;
12650;SDS011;6390;49.400;8.670;2023-04-03T11:17:42;0.70;;;0.70;;
12650;SDS011;6390;49.400;8.670;2023-04-03T11:23:19;0.68;;;0.55;;
12650;SDS011;6390;49.400;8.670;2023-04-03T11:25:54;0.82;;;0.70;;
12650;SDS011;6390;49.400;8.670;2023-04-03T11:28:24;1.02;;;0.93;;
12650;SDS011;6390;49.400;8.670;2023-04-03T11:33:49;2.33;;;1.00;;
12650;SDS011;6390;49.400;8.670;2023-04-03T11:36:29;1.17;;;1.05;;
12650;SDS011;6390;49.400;8.670;2023-04-03T11:38:58;1.00;;;0.90;;
12650;SDS011;6390;49.400;8.670;2023-04-03T11:41:32;1.45;;;0.75;;
12650;SDS011;6390;49.400;8.670;2023-04-03T11:58:02;1.40;;;0.80;;
12650;SDS011;6390;49.400;8.670;2023-04-03T12:05:56;1.48;;;0.90;;
12650;SDS011;6390;49.400;8.670;2023-04-03T12:08:45;2.53;;;1.13;;
12650;SDS011;6390;49.400;8.670;2023-04-03T12:13:42;1.17;;;0.80;;
12650;SDS011;6390;49.400;8.670;2023-04-03T12:24:28;1.13;;;1.00;;
12650;SDS011;6390;49.400;8.670;2023-04-03T12:29:24;1.15;;;1.05;;
12650;SDS011;6390;49.400;8.670;2023-04-03T12:48:54;1.40;;;1.10;;
12650;SDS011;6390;49.400;8.670;2023-04-03T12:51:27;3.25;;;1.00;;
12650;SDS011;6390;49.400;8.670;2023-04-03T12:56:39;1.00;;;1.00;;
12650;SDS011;6390;49.400;8.670;2023-04-03T12:59:21;1.20;;;1.10;;
12650;SDS011;6390;49.400;8.670;2023-04-03T13:01:58;1.58;;;1.17;;
12650;SDS011;6390;49.400;8.670;2023-04-03T13:04:29;1.75;;;1.17;;
12650;SDS011;6390;49.400;8.670;2023-04-03T13:06:57;2.97;;;1.20;;
12650;SDS011;6390;49.400;8.670;2023-04-03T13:09:28;1.00;;;0.90;;
12650;SDS011;6390;49.400;8.670;2023-04-03T13:14:27;1.10;;;0.90;;
12650;SDS011;6390;49.400;8.670;2023-04-03T13:16:55;1.25;;;1.10;;
12650;SDS011;6390;49.400;8.670;2023-04-03T13:19:37;1.30;;;1.20;;
12650;SDS011;6390;49.400;8.670;2023-04-03T13:22:08;1.10;;;1.00;;
12650;SDS011;6390;49.400;8.670;2023-04-03T13:24:43;1.63;;;1.00;;
12650;SDS011;6390;49.400;8.670;2023-04-03T13:27:10;1.23;;;1.00;;
12650;SDS011;6390;49.400;8.670;2023-04-03T13:29:37;1.80;;;1.02;;
12650;SDS011;6390;49.400;8.670;2023-04-03T13:32:04;1.33;;;1.00;;
12650;SDS011;6390;49.400;8.670;2023-04-03T13:34:36;1.23;;;1.10;;
12650;SDS011;6390;49.400;8.670;2023-04-03T13:37:18;1.67;;;0.90;;
12650;SDS011;6390;49.400;8.670;2023-04-03T13:40:11;1.30;;;1.17;;
12650;SDS011;6390;49.400;8.670;2023-04-03T13:42:38;1.77;;;1.15;;
12650;SDS011;6390;49.400;8.670;2023-04-03T13:45:20;1.58;;;1.20;;
12650;SDS011;6390;49.400;8.670;2023-04-03T13:47:51;1.50;;;1.25;;
12650;SDS011;6390;49.400;8.670;2023-04-03T13:50:32;1.30;;;1.15;;
12650;SDS011;6390;49.400;8.670;2023-04-03T13:53:03;1.20;;;1.10;;
12650;SDS011;6390;49.400;8.670;2023-04-03T13:55:37;1.15;;;0.93;;
12650;SDS011;6390;49.400;8.670;2023-04-03T13:58:23;1.17;;;1.08;;
12650;SDS011;6390;49.400;8.670;2023-04-03T14:00:53;2.35;;;1.10;;
12650;SDS011;6390;49.400;8.670;2023-04-03T14:06:20;1.10;;;1.00;;
12650;SDS011;6390;49.400;8.670;2023-04-03T14:08:47;1.20;;;1.10;;
12650;SDS011;6390;49.400;8.670;2023-04-03T14:11:15;1.65;;;1.30;;
12650;SDS011;6390;49.400;8.670;2023-04-03T14:13:44;2.30;;;1.00;;
12650;SDS011;6390;49.400;8.670;2023-04-03T14:16:12;1.45;;;1.02;;
12650;SDS011;6390;49.400;8.670;2023-04-03T14:18:41;2.50;;;1.25;;
12650;SDS011;6390;49.400;8.670;2023-04-03T14:21:10;1.30;;;1.20;;
12650;SDS011;6390;49.400;8.670;2023-04-03T14:23:38;1.35;;;1.13;;
12650;SDS011;6390;49.400;8.670;2023-04-03T14:26:09;3.33;;;1.10;;
12650;SDS011;6390;49.400;8.670;2023-04-03T14:28:45;1.65;;;1.20;;
12650;SDS011;6390;49.400;8.670;2023-04-03T14:31:12;1.30;;;1.20;;
12650;SDS011;6390;49.400;8.670;2023-04-03T14:33:40;1.48;;;1.20;;
12650;SDS011;6390;49.400;8.670;2023-04-03T14:36:13;1.33;;;1.23;;
12650;SDS011;6390;49.400;8.670;2023-04-03T14:38:47;1.30;;;1.20;;
12650;SDS011;6390;49.400;8.670;2023-04-03T14:41:15;1.38;;;1.20;;
12650;SDS011;6390;49.400;8.670;2023-04-03T14:43:45;2.20;;;1.08;;
12650;SDS011;6390;49.400;8.670;2023-04-03T14:46:13;1.48;;;1.17;;
12650;SDS011;6390;49.400;8.670;2023-04-03T14:48:42;1.65;;;1.17;;
12650;SDS011;6390;49.400;8.670;2023-04-03T14:51:12;1.85;;;1.17;;
12650;SDS011;6390;49.400;8.670;2023-04-03T14:53:41;1.83;;;1.10;;
12650;SDS011;6390;49.400;8.670;2023-04-03T14:56:10;1.55;;;1.27;;
12650;SDS011;6390;49.400;8.670;2023-04-03T14:58:48;1.38;;;1.10;;
12650;SDS011;6390;49.400;8.670;2023-04-03T15:01:17;1.20;;;1.10;;
12650;SDS011;6390;49.400;8.670;2023-04-03T15:03:43;1.80;;;1.30;;
12650;SDS011;6390;49.400;8.670;2023-04-03T15:06:10;2.08;;;1.10;;
12650;SDS011;6390;49.400;8.670;2023-04-03T15:08:38;1.58;;;1.10;;
12650;SDS011;6390;49.400;8.670;2023-04-03T15:11:06;1.13;;;1.00;;
12650;SDS011;6390;49.400;8.670;2023-04-03T15:13:33;1.77;;;1.00;;
12650;SDS011;6390;49.400;8.670;2023-04-03T15:15:59;1.27;;;1.10;;
12650;SDS011;6390;49.400;8.670;2023-04-03T15:18:26;1.08;;;0.90;;
12650;SDS011;6390;49.400;8.670;2023-04-03T15:20:55;1.50;;;1.35;;
12650;SDS011;6390;49.400;8.670;2023-04-03T15:23:21;1.13;;;1.02;;
12650;SDS011;6390;49.400;8.670;2023-04-03T15:25:54;2.00;;;1.02;;
12650;SDS011;6390;49.400;8.670;2023-04-03T15:28:40;1.20;;;1.10;;
12650;SDS011;6390;49.400;8.670;2023-04-03T15:31:07;1.83;;;1.00;;
12650;SDS011;6390;49.400;8.670;2023-04-03T15:33:34;1.23;;;1.02;;
12650;SDS011;6390;49.400;8.670;2023-04-03T15:36:01;1.00;;;0.90;;
12650;SDS011;6390;49.400;8.670;2023-04-03T15:38:28;0.90;;;0.90;;
12650;SDS011;6390;49.400;8.670;2023-04-03T15:40:54;1.23;;;1.13;;
12650;SDS011;6390;49.400;8.670;2023-04-03T15:43:21;1.75;;;1.15;;
12650;SDS011;6390;49.400;8.670;2023-04-03T15:45:47;1.27;;;1.00;;
12650;SDS011;6390;49.400;8.670;2023-04-03T15:48:14;1.25;;;1.00;;
12650;SDS011;6390;49.400;8.670;2023-04-03T15:50:40;1.55;;;1.10;;
12650;SDS011;6390;49.400;8.670;2023-04-03T15:53:07;1.30;;;1.00;;
12650;SDS011;6390;49.400;8.670;2023-04-03T15:55:34;1.90;;;1.52;;
12650;SDS011;6390;49.400;8.670;2023-04-03T15:58:02;2.60;;;1.45;;
12650;SDS011;6390;49.400;8.670;2023-04-03T16:00:29;1.38;;;1.10;;
12650;SDS011;6390;49.400;8.670;2023-04-03T16:02:57;2.45;;;1.05;;
12650;SDS011;6390;49.400;8.670;2023-04-03T16:05:36;2.22;;;1.00;;
12650;SDS011;6390;49.400;8.670;2023-04-03T16:08:04;1.98;;;1.02;;
12650;SDS011;6390;49.400;8.670;2023-04-03T16:10:32;0.90;;;0.90;;
12650;SDS011;6390;49.400;8.670;2023-04-03T16:12:59;1.55;;;0.85;;
12650;SDS011;6390;49.400;8.670;2023-04-03T16:15:26;1.05;;;1.00;;
12650;SDS011;6390;49.400;8.670;2023-04-03T16:17:52;1.40;;;0.82;;
12650;SDS011;6390;49.400;8.670;2023-04-03T16:20:19;0.73;;;0.73;;
12650;SDS011;6390;49.400;8.670;2023-04-03T16:22:46;1.42;;;0.90;;
12650;SDS011;6390;49.400;8.670;2023-04-03T16:25:13;1.42;;;1.00;;
12650;SDS011;6390;49.400;8.670;2023-04-03T16:27:40;3.30;;;1.10;;
12650;SDS011;6390;49.400;8.670;2023-04-03T16:30:06;0.70;;;0.70;;
12650;SDS011;6390;49.400;8.670;2023-04-03T16:32:33;1.50;;;0.90;;
12650;SDS011;6390;49.400;8.670;2023-04-03T16:34:59;2.03;;;0.90;;
12650;SDS011;6390;49.400;8.670;2023-04-03T16:37:25;1.05;;;0.93;;
12650;SDS011;6390;49.400;8.670;2023-04-03T16:39:52;1.02;;;0.90;;
12650;SDS011;6390;49.400;8.670;2023-04-03T16:42:18;1.45;;;0.85;;
12650;SDS011;6390;49.400;8.670;2023-04-03T16:44:44;0.88;;;0.80;;
12650;SDS011;6390;49.400;8.670;2023-04-03T16:47:10;1.05;;;0.90;;
12650;SDS011;6390;49.400;8.670;2023-04-03T16:49:38;1.27;;;0.90;;
12650;SDS011;6390;49.400;8.670;2023-04-03T16:52:04;0.90;;;0.82;;
12650;SDS011;6390;49.400;8.670;2023-04-03T16:54:31;1.42;;;0.90;;
12650;SDS011;6390;49.400;8.670;2023-04-03T16:56:57;1.00;;;0.90;;
12650;SDS011;6390;49.400;8.670;2023-04-03T16:59:24;1.02;;;0.93;;
12650;SDS011;6390;49.400;8.670;2023-04-03T17:01:50;1.35;;;1.10;;
12650;SDS011;6390;49.400;8.670;2023-04-03T17:04:16;1.40;;;1.00;;
12650;SDS011;6390;49.400;8.670;2023-04-03T17:06:42;1.05;;;1.00;;
12650;SDS011;6390;49.400;8.670;2023-04-03T17:09:08;0.90;;;0.90;;
12650;SDS011;6390;49.400;8.670;2023-04-03T17:11:35;1.08;;;0.98;;
12650;SDS011;6390;49.400;8.670;2023-04-03T17:14:02;1.05;;;0.95;;
12650;SDS011;6390;49.400;8.670;2023-04-03T17:16:29;1.15;;;0.98;;
12650;SDS011;6390;49.400;8.670;2023-04-03T17:18:58;0.98;;;0.80;;
12650;SDS011;6390;49.400;8.670;2023-04-03T17:21:25;1.90;;;0.88;;
12650;SDS011;6390;49.400;8.670;2023-04-03T17:23:54;0.82;;;0.70;;
12650;SDS011;6390;49.400;8.670;2023-04-03T17:26:22;2.28;;;0.98;;
12650;SDS011;6390;49.400;8.670;2023-04-03T17:28:50;1.23;;;1.05;;
12650;SDS011;6390;49.400;8.670;2023-04-03T17:31:17;1.67;;;1.17;;
12650;SDS011;6390;49.400;8.670;2023-04-03T17:33:43;1.50;;;1.20;;
12650;SDS011;6390;49.400;8.670;2023-04-03T17:36:09;2.50;;;1.20;;
12650;SDS011;6390;49.400;8.670;2023-04-03T17:38:35;1.17;;;1.00;;
12650;SDS011;6390;49.400;8.670;2023-04-03T17:41:03;1.98;;;1.20;;
12650;SDS011;6390;49.400;8.670;2023-04-03T17:43:32;1.23;;;1.00;;
12650;SDS011;6390;49.400;8.670;2023-04-03T17:46:03;1.38;;;1.00;;
12650;SDS011;6390;49.400;8.670;2023-04-03T17:48:34;1.30;;;1.20;;
12650;SDS011;6390;49.400;8.670;2023-04-03T17:51:06;2.13;;;1.00;;
12650;SDS011;6390;49.400;8.670;2023-04-03T17:53:39;1.80;;;1.40;;
12650;SDS011;6390;49.400;8.670;2023-04-03T17:56:10;1.30;;;1.20;;
12650;SDS011;6390;49.400;8.670;2023-04-03T17:58:38;2.65;;;1.30;;
12650;SDS011;6390;49.400;8.670;2023-04-03T18:01:06;1.50;;;1.20;;
12650;SDS011;6390;49.400;8.670;2023-04-03T18:03:38;1.52;;;1.10;;
12650;SDS011;6390;49.400;8.670;2023-04-03T18:06:06;2.00;;;1.30;;
12650;SDS011;6390;49.400;8.670;2023-04-03T18:08:43;1.10;;;1.00;;
12650;SDS011;6390;49.400;8.670;2023-04-03T18:11:12;1.85;;;1.30;;
12650;SDS011;6390;49.400;8.670;2023-04-03T18:13:39;1.17;;;1.08;;
12650;SDS011;6390;49.400;8.670;2023-04-03T18:16:07;1.58;;;1.25;;
12650;SDS011;6390;49.400;8.670;2023-04-03T18:18:35;2.78;;;1.88;;
12650;SDS011;6390;49.400;8.670;2023-04-03T18:21:01;2.15;;;1.38;;
12650;SDS011;6390;49.400;8.670;2023-04-03T18:23:28;2.90;;;1.50;;
12650;SDS011;6390;49.400;8.670;2023-04-03T18:25:56;2.15;;;1.23;;
12650;SDS011;6390;49.400;8.670;2023-04-03T18:28:25;3.08;;;1.52;;
12650;SDS011;6390;49.400;8.670;2023-04-03T18:30:52;2.08;;;1.30;;
12650;SDS011;6390;49.400;8.670;2023-04-03T18:33:18;1.30;;;1.20;;
12650;SDS011;6390;49.400;8.670;2023-04-03T18:35:44;1.23;;;1.08;;
12650;SDS011;6390;49.400;8.670;2023-04-03T18:38:10;2.65;;;1.38;;
12650;SDS011;6390;49.400;8.670;2023-04-03T18:40:36;1.55;;;1.30;;
12650;SDS011;6390;49.400;8.670;2023-04-03T18:43:04;3.60;;;1.60;;
12650;SDS011;6390;49.400;8.670;2023-04-03T18:45:30;1.98;;;1.50;;
12650;SDS011;6390;49.400;8.670;2023-04-03T18:47:56;1.45;;;1.13;;
12650;SDS011;6390;49.400;8.670;2023-04-03T18:50:22;1.73;;;1.30;;
12650;SDS011;6390;49.400;8.670;2023-04-03T18:52:48;1.42;;;1.33;;
12650;SDS011;6390;49.400;8.670;2023-04-03T18:55:16;1.83;;;1.15;;
12650;SDS011;6390;49.400;8.670;2023-04-03T18:57:44;1.40;;;1.30;;
12650;SDS011;6390;49.400;8.670;2023-04-03T19:00:12;2.67;;;1.63;;
12650;SDS011;6390;49.400;8.670;2023-04-03T19:02:40;1.27;;;1.17;;
12650;SDS011;6390;49.400;8.670;2023-04-03T19:05:07;1.40;;;1.30;;
12650;SDS011;6390;49.400;8.670;2023-04-03T19:07:35;2.92;;;1.23;;
12650;SDS011;6390;49.400;8.670;2023-04-03T19:10:01;1.63;;;1.30;;
12650;SDS011;6390;49.400;8.670;2023-04-03T19:12:27;1.35;;;1.23;;
12650;SDS011;6390;49.400;8.670;2023-04-03T19:14:53;3.08;;;1.30;;
12650;SDS011;6390;49.400;8.670;2023-04-03T19:17:20;1.60;;;1.45;;
12650;SDS011;6390;49.400;8.670;2023-04-03T19:19:46;1.40;;;1.30;;
12650;SDS011;6390;49.400;8.670;2023-04-03T19:22:12;1.30;;;1.20;;
12650;SDS011;6390;49.400;8.670;2023-04-03T19:24:38;1.80;;;1.35;;
12650;SDS011;6390;49.400;8.670;2023-04-03T19:27:04;2.13;;;1.40;;
12650;SDS011;6390;49.400;8.670;2023-04-03T19:29:30;1.75;;;1.30;;
12650;SDS011;6390;49.400;8.670;2023-04-03T19:31:56;2.30;;;1.20;;
12650;SDS011;6390;49.400;8.670;2023-04-03T19:34:22;1.50;;;1.17;;
12650;SDS011;6390;49.400;8.670;2023-04-03T19:36:49;1.30;;;1.15;;
12650;SDS011;6390;49.400;8.670;2023-04-03T19:39:15;2.58;;;1.27;;
12650;SDS011;6390;49.400;8.670;2023-04-03T19:41:42;1.20;;;1.10;;
12650;SDS011;6390;49.400;8.670;2023-04-03T19:44:10;1.00;;;0.90;;
12650;SDS011;6390;49.400;8.670;2023-04-03T19:46:36;1.17;;;1.08;;
12650;SDS011;6390;49.400;8.670;2023-04-03T19:49:03;1.35;;;1.20;;
12650;SDS011;6390;49.400;8.670;2023-04-03T19:51:29;1.20;;;1.10;;
12650;SDS011;6390;49.400;8.670;2023-04-03T19:53:55;1.35;;;1.10;;
12650;SDS011;6390;49.400;8.670;2023-04-03T19:56:21;1.88;;;1.23;;
12650;SDS011;6390;49.400;8.670;2023-04-03T19:58:48;1.42;;;1.10;;
12650;SDS011;6390;49.400;8.670;2023-04-03T20:01:21;2.75;;;1.13;;
12650;SDS011;6390;49.400;8.670;2023-04-03T20:03:48;1.10;;;1.00;;
12650;SDS011;6390;49.400;8.670;2023-04-03T20:06:15;0.95;;;0.95;;
12650;SDS011;6390;49.400;8.670;2023-04-03T20:08:41;1.45;;;1.20;;
12650;SDS011;6390;49.400;8.670;2023-04-03T20:11:08;1.30;;;1.10;;
12650;SDS011;6390;49.400;8.670;2023-04-03T20:13:35;1.40;;;0.93;;
12650;SDS011;6390;49.400;8.670;2023-04-03T20:16:02;1.70;;;1.05;;
12650;SDS011;6390;49.400;8.670;2023-04-03T20:18:30;1.38;;;1.27;;
12650;SDS011;6390;49.400;8.670;2023-04-03T20:21:00;4.55;;;2.90;;
12650;SDS011;6390;49.400;8.670;2023-04-03T20:23:28;1.52;;;1.30;;
12650;SDS011;6390;49.400;8.670;2023-04-03T20:25:55;2.03;;;1.20;;
12650;SDS011;6390;49.400;8.670;2023-04-03T20:28:23;1.52;;;1.23;;
12650;SDS011;6390;49.400;8.670;2023-04-03T20:30:50;1.30;;;1.20;;